Airfield :
LOGIN :

Register | Disclaimer

   EN    FR    IT 

 










Legend :    VFR   Marginal VFR   IFR   Intensive IFR   Very Intensive IFR
Visi :
Ceiling :
>= 8 km
>= 3000ft
5 to 8 km
1000 to 3000 ft
1500m to 5 km
500 to 1000 ft
800 to 1500m
200 to 500 ft
< 800m
< 200 ft
Symbols :   Thunderstorms  Fog  Heavy snow  Heavy precipitations  Wind > 20 kt
SIGMETs :     Misc.  Thunderstorms  Icing  Turbulence  Mountain Waves  Volcanic Ashes






- Airport Elevation : 146 ft
- IATA code : RKE


EKRK - Roskilde Tune

CURRENT METAR :
  • 250520Z AUTO 29009KT 9999 OVC012/// 10/09 Q1022

EXPIRED METARs :
  • 250450Z AUTO 29010KT 9999 OVC011/// 10/09 Q1022
  • 250420Z AUTO 29009KT 9999 OVC014/// 10/08 Q1021
  • 250350Z AUTO 29011KT 9999 -RA OVC015/// 10/08 Q1021
  • 250320Z AUTO 29010KT 9999 OVC016/// 10/08 Q1021
  • 250250Z AUTO 29010KT 9999 OVC014/// 10/08 Q1021

TAF TAF EKRK
Valid from the 25 at 06:00 until the 25 at 15:00 UTC


250525Z 2506/2515 29010KT 9999 BKN015
TEMPO 2506/2509 BKN012
BECMG 2509/2512 36010KT



MET'MAP, your aeronautical weather chart ! - Copyright ORBIFLY December 2007 - Disclaimer

ORBIFLY MET'MAP TEAM :

Programming & Development : Alexandra Zaïnal
Concept & original design : Baudouin d'Aumeries
Assistance for programming : Marc-Olivier Méhu
Technical & hardware support : Manuel Goepfert

Contact : metmap@orbifly.com




SOURCES & CREDITS :

   NOAA